sensor_id;sensor_type;location;lat;lon;timestamp;P1;durP1;ratioP1;P2;durP2;ratioP2
19735;SDS011;32064;49.310;8.646;2022-10-31T00:02:05;8.33;;;3.50;;
19735;SDS011;32064;49.310;8.646;2022-10-31T00:04:30;5.57;;;3.90;;
19735;SDS011;32064;49.310;8.646;2022-10-31T00:06:56;6.77;;;3.40;;
19735;SDS011;32064;49.310;8.646;2022-10-31T00:09:21;5.80;;;3.40;;
19735;SDS011;32064;49.310;8.646;2022-10-31T00:11:47;6.50;;;3.50;;
19735;SDS011;32064;49.310;8.646;2022-10-31T00:14:12;7.20;;;3.63;;
19735;SDS011;32064;49.310;8.646;2022-10-31T00:16:38;8.70;;;3.57;;
19735;SDS011;32064;49.310;8.646;2022-10-31T00:19:06;5.97;;;3.17;;
19735;SDS011;32064;49.310;8.646;2022-10-31T00:21:32;6.53;;;3.60;;
19735;SDS011;32064;49.310;8.646;2022-10-31T00:23:59;6.43;;;3.33;;
19735;SDS011;32064;49.310;8.646;2022-10-31T00:26:26;7.93;;;2.93;;
19735;SDS011;32064;49.310;8.646;2022-10-31T00:28:52;9.17;;;3.50;;
19735;SDS011;32064;49.310;8.646;2022-10-31T00:31:18;7.33;;;3.40;;
19735;SDS011;32064;49.310;8.646;2022-10-31T00:33:43;7.90;;;3.47;;
19735;SDS011;32064;49.310;8.646;2022-10-31T00:36:16;7.77;;;3.37;;
19735;SDS011;32064;49.310;8.646;2022-10-31T00:38:43;10.70;;;3.60;;
19735;SDS011;32064;49.310;8.646;2022-10-31T00:41:13;4.73;;;2.67;;
19735;SDS011;32064;49.310;8.646;2022-10-31T00:43:40;5.87;;;3.30;;
19735;SDS011;32064;49.310;8.646;2022-10-31T00:46:05;5.43;;;2.93;;
19735;SDS011;32064;49.310;8.646;2022-10-31T00:48:31;6.70;;;3.20;;
19735;SDS011;32064;49.310;8.646;2022-10-31T00:50:56;12.33;;;3.50;;
19735;SDS011;32064;49.310;8.646;2022-10-31T00:53:22;11.67;;;3.07;;
19735;SDS011;32064;49.310;8.646;2022-10-31T00:55:47;5.90;;;2.80;;
19735;SDS011;32064;49.310;8.646;2022-10-31T00:58:13;6.43;;;3.00;;
19735;SDS011;32064;49.310;8.646;2022-10-31T01:00:39;5.27;;;3.20;;
19735;SDS011;32064;49.310;8.646;2022-10-31T01:03:04;6.77;;;3.23;;
19735;SDS011;32064;49.310;8.646;2022-10-31T01:05:29;6.73;;;2.73;;
19735;SDS011;32064;49.310;8.646;2022-10-31T01:07:55;6.07;;;3.07;;
19735;SDS011;32064;49.310;8.646;2022-10-31T01:10:21;6.20;;;2.80;;
19735;SDS011;32064;49.310;8.646;2022-10-31T01:12:47;6.20;;;3.00;;
19735;SDS011;32064;49.310;8.646;2022-10-31T01:15:14;7.27;;;3.20;;
19735;SDS011;32064;49.310;8.646;2022-10-31T01:17:43;5.63;;;2.60;;
19735;SDS011;32064;49.310;8.646;2022-10-31T01:20:09;8.77;;;3.13;;
19735;SDS011;32064;49.310;8.646;2022-10-31T01:22:36;5.97;;;3.00;;
19735;SDS011;32064;49.310;8.646;2022-10-31T01:25:01;7.03;;;2.90;;
19735;SDS011;32064;49.310;8.646;2022-10-31T01:27:27;4.17;;;2.80;;
19735;SDS011;32064;49.310;8.646;2022-10-31T01:29:53;5.50;;;3.17;;
19735;SDS011;32064;49.310;8.646;2022-10-31T01:32:18;4.13;;;3.00;;
19735;SDS011;32064;49.310;8.646;2022-10-31T01:34:45;4.77;;;3.10;;
19735;SDS011;32064;49.310;8.646;2022-10-31T01:37:10;6.33;;;3.27;;
19735;SDS011;32064;49.310;8.646;2022-10-31T01:39:35;5.50;;;3.00;;
19735;SDS011;32064;49.310;8.646;2022-10-31T01:42:01;5.43;;;3.00;;
19735;SDS011;32064;49.310;8.646;2022-10-31T01:52:14;5.17;;;3.20;;
19735;SDS011;32064;49.310;8.646;2022-10-31T01:54:46;5.93;;;2.83;;
19735;SDS011;32064;49.310;8.646;2022-10-31T01:57:16;6.30;;;2.90;;
19735;SDS011;32064;49.310;8.646;2022-10-31T01:59:47;8.63;;;3.40;;
19735;SDS011;32064;49.310;8.646;2022-10-31T02:02:15;5.37;;;3.20;;
19735;SDS011;32064;49.310;8.646;2022-10-31T02:04:43;4.70;;;2.90;;
19735;SDS011;32064;49.310;8.646;2022-10-31T02:07:14;7.33;;;3.00;;
19735;SDS011;32064;49.310;8.646;2022-10-31T02:09:46;6.77;;;3.20;;
19735;SDS011;32064;49.310;8.646;2022-10-31T02:12:14;7.37;;;3.63;;
19735;SDS011;32064;49.310;8.646;2022-10-31T02:14:41;9.53;;;3.20;;
19735;SDS011;32064;49.310;8.646;2022-10-31T02:17:07;5.43;;;3.20;;
19735;SDS011;32064;49.310;8.646;2022-10-31T02:28:13;6.03;;;3.10;;
19735;SDS011;32064;49.310;8.646;2022-10-31T02:37:04;7.40;;;3.00;;
19735;SDS011;32064;49.310;8.646;2022-10-31T02:42:07;7.00;;;2.80;;
19735;SDS011;32064;49.310;8.646;2022-10-31T02:44:59;6.27;;;2.73;;
19735;SDS011;32064;49.310;8.646;2022-10-31T02:47:32;6.80;;;2.67;;
19735;SDS011;32064;49.310;8.646;2022-10-31T02:52:33;6.57;;;2.80;;
19735;SDS011;32064;49.310;8.646;2022-10-31T02:55:09;5.80;;;2.90;;
19735;SDS011;32064;49.310;8.646;2022-10-31T02:57:37;7.60;;;3.20;;
19735;SDS011;32064;49.310;8.646;2022-10-31T03:00:07;6.60;;;2.90;;
19735;SDS011;32064;49.310;8.646;2022-10-31T03:08:29;8.10;;;2.80;;
19735;SDS011;32064;49.310;8.646;2022-10-31T03:11:01;5.00;;;2.40;;
19735;SDS011;32064;49.310;8.646;2022-10-31T03:13:40;8.07;;;2.90;;
19735;SDS011;32064;49.310;8.646;2022-10-31T03:16:23;7.03;;;2.93;;
19735;SDS011;32064;49.310;8.646;2022-10-31T03:18:53;6.53;;;2.57;;
19735;SDS011;32064;49.310;8.646;2022-10-31T03:21:29;8.67;;;2.60;;
19735;SDS011;32064;49.310;8.646;2022-10-31T03:23:58;7.40;;;2.73;;
19735;SDS011;32064;49.310;8.646;2022-10-31T03:26:26;7.23;;;2.70;;
19735;SDS011;32064;49.310;8.646;2022-10-31T03:28:56;8.67;;;3.00;;
19735;SDS011;32064;49.310;8.646;2022-10-31T03:31:33;5.80;;;3.00;;
19735;SDS011;32064;49.310;8.646;2022-10-31T03:34:06;5.80;;;2.80;;
19735;SDS011;32064;49.310;8.646;2022-10-31T03:36:33;6.80;;;3.10;;
19735;SDS011;32064;49.310;8.646;2022-10-31T03:39:04;11.80;;;3.53;;
19735;SDS011;32064;49.310;8.646;2022-10-31T03:41:35;6.00;;;2.67;;
19735;SDS011;32064;49.310;8.646;2022-10-31T03:44:06;4.27;;;2.60;;
19735;SDS011;32064;49.310;8.646;2022-10-31T03:46:36;8.13;;;3.00;;
19735;SDS011;32064;49.310;8.646;2022-10-31T03:49:01;6.07;;;2.60;;
19735;SDS011;32064;49.310;8.646;2022-10-31T03:54:24;5.53;;;2.57;;
19735;SDS011;32064;49.310;8.646;2022-10-31T03:56:57;9.23;;;3.30;;
19735;SDS011;32064;49.310;8.646;2022-10-31T03:59:32;6.17;;;2.77;;
19735;SDS011;32064;49.310;8.646;2022-10-31T04:02:05;7.30;;;3.30;;
19735;SDS011;32064;49.310;8.646;2022-10-31T04:04:34;7.47;;;2.87;;
19735;SDS011;32064;49.310;8.646;2022-10-31T04:07:01;6.43;;;3.13;;
19735;SDS011;32064;49.310;8.646;2022-10-31T04:09:30;4.97;;;2.63;;
19735;SDS011;32064;49.310;8.646;2022-10-31T04:11:58;7.77;;;3.17;;
19735;SDS011;32064;49.310;8.646;2022-10-31T04:14:26;7.03;;;3.37;;
19735;SDS011;32064;49.310;8.646;2022-10-31T04:16:59;9.83;;;3.27;;
19735;SDS011;32064;49.310;8.646;2022-10-31T04:19:26;6.63;;;3.50;;
19735;SDS011;32064;49.310;8.646;2022-10-31T04:21:51;9.17;;;3.33;;
19735;SDS011;32064;49.310;8.646;2022-10-31T04:24:17;8.40;;;3.30;;
19735;SDS011;32064;49.310;8.646;2022-10-31T04:26:42;7.13;;;3.50;;
19735;SDS011;32064;49.310;8.646;2022-10-31T04:29:08;9.20;;;3.00;;
19735;SDS011;32064;49.310;8.646;2022-10-31T04:31:33;6.30;;;3.00;;
19735;SDS011;32064;49.310;8.646;2022-10-31T04:33:58;7.47;;;3.33;;
19735;SDS011;32064;49.310;8.646;2022-10-31T04:36:24;5.90;;;2.83;;
19735;SDS011;32064;49.310;8.646;2022-10-31T04:38:49;5.87;;;2.77;;
19735;SDS011;32064;49.310;8.646;2022-10-31T04:41:15;5.50;;;2.90;;
19735;SDS011;32064;49.310;8.646;2022-10-31T04:43:40;5.30;;;3.03;;
19735;SDS011;32064;49.310;8.646;2022-10-31T04:46:05;8.33;;;2.77;;
19735;SDS011;32064;49.310;8.646;2022-10-31T04:48:31;4.83;;;2.80;;
19735;SDS011;32064;49.310;8.646;2022-10-31T04:51:00;5.30;;;2.67;;
19735;SDS011;32064;49.310;8.646;2022-10-31T04:53:26;8.03;;;3.00;;
19735;SDS011;32064;49.310;8.646;2022-10-31T04:55:52;13.27;;;3.07;;
19735;SDS011;32064;49.310;8.646;2022-10-31T04:58:17;6.63;;;3.20;;
19735;SDS011;32064;49.310;8.646;2022-10-31T05:00:42;7.17;;;2.90;;
19735;SDS011;32064;49.310;8.646;2022-10-31T05:03:08;8.87;;;3.33;;
19735;SDS011;32064;49.310;8.646;2022-10-31T05:05:33;6.27;;;3.00;;
19735;SDS011;32064;49.310;8.646;2022-10-31T05:07:59;7.07;;;2.90;;
19735;SDS011;32064;49.310;8.646;2022-10-31T05:10:25;10.40;;;3.13;;
19735;SDS011;32064;49.310;8.646;2022-10-31T05:12:53;5.30;;;2.60;;
19735;SDS011;32064;49.310;8.646;2022-10-31T05:15:24;6.80;;;3.60;;
19735;SDS011;32064;49.310;8.646;2022-10-31T05:17:51;7.40;;;3.07;;
19735;SDS011;32064;49.310;8.646;2022-10-31T05:20:18;7.80;;;3.10;;
19735;SDS011;32064;49.310;8.646;2022-10-31T05:22:49;5.60;;;3.17;;
19735;SDS011;32064;49.310;8.646;2022-10-31T05:25:17;7.20;;;3.37;;
19735;SDS011;32064;49.310;8.646;2022-10-31T05:27:44;5.73;;;3.00;;
19735;SDS011;32064;49.310;8.646;2022-10-31T05:30:12;7.20;;;3.27;;
19735;SDS011;32064;49.310;8.646;2022-10-31T05:32:39;6.10;;;2.63;;
19735;SDS011;32064;49.310;8.646;2022-10-31T05:35:10;8.97;;;2.90;;
19735;SDS011;32064;49.310;8.646;2022-10-31T05:37:37;8.30;;;2.87;;
19735;SDS011;32064;49.310;8.646;2022-10-31T05:40:04;7.90;;;3.10;;
19735;SDS011;32064;49.310;8.646;2022-10-31T05:42:31;4.87;;;2.77;;
19735;SDS011;32064;49.310;8.646;2022-10-31T05:44:56;5.03;;;3.10;;
19735;SDS011;32064;49.310;8.646;2022-10-31T05:47:22;5.17;;;2.60;;
19735;SDS011;32064;49.310;8.646;2022-10-31T05:49:47;9.87;;;2.93;;
19735;SDS011;32064;49.310;8.646;2022-10-31T05:52:13;4.73;;;2.97;;
19735;SDS011;32064;49.310;8.646;2022-10-31T05:54:39;5.07;;;2.80;;
19735;SDS011;32064;49.310;8.646;2022-10-31T05:57:04;10.30;;;3.13;;
19735;SDS011;32064;49.310;8.646;2022-10-31T05:59:30;6.53;;;3.40;;
19735;SDS011;32064;49.310;8.646;2022-10-31T06:01:55;6.00;;;2.87;;
19735;SDS011;32064;49.310;8.646;2022-10-31T06:04:20;6.27;;;3.10;;
19735;SDS011;32064;49.310;8.646;2022-10-31T06:06:46;6.53;;;3.00;;
19735;SDS011;32064;49.310;8.646;2022-10-31T06:09:11;5.23;;;2.80;;
19735;SDS011;32064;49.310;8.646;2022-10-31T06:11:37;6.20;;;2.83;;
19735;SDS011;32064;49.310;8.646;2022-10-31T06:14:03;5.80;;;3.20;;
19735;SDS011;32064;49.310;8.646;2022-10-31T06:16:29;4.23;;;3.00;;
19735;SDS011;32064;49.310;8.646;2022-10-31T06:18:54;3.80;;;2.87;;
19735;SDS011;32064;49.310;8.646;2022-10-31T06:21:20;6.23;;;3.00;;
19735;SDS011;32064;49.310;8.646;2022-10-31T06:23:45;6.30;;;2.70;;
19735;SDS011;32064;49.310;8.646;2022-10-31T06:26:10;9.40;;;3.37;;
19735;SDS011;32064;49.310;8.646;2022-10-31T06:28:36;5.17;;;3.00;;
19735;SDS011;32064;49.310;8.646;2022-10-31T06:31:01;3.60;;;3.00;;
19735;SDS011;32064;49.310;8.646;2022-10-31T06:33:27;6.53;;;3.00;;
19735;SDS011;32064;49.310;8.646;2022-10-31T06:35:52;6.73;;;3.03;;
19735;SDS011;32064;49.310;8.646;2022-10-31T06:38:17;5.80;;;3.33;;
19735;SDS011;32064;49.310;8.646;2022-10-31T06:40:43;9.00;;;3.67;;
19735;SDS011;32064;49.310;8.646;2022-10-31T06:43:08;8.43;;;3.90;;
19735;SDS011;32064;49.310;8.646;2022-10-31T06:45:34;8.57;;;3.40;;
19735;SDS011;32064;49.310;8.646;2022-10-31T06:47:59;6.30;;;3.40;;
19735;SDS011;32064;49.310;8.646;2022-10-31T06:50:24;5.40;;;3.23;;
19735;SDS011;32064;49.310;8.646;2022-10-31T06:52:57;9.47;;;3.80;;
19735;SDS011;32064;49.310;8.646;2022-10-31T06:55:24;8.23;;;3.63;;
19735;SDS011;32064;49.310;8.646;2022-10-31T06:57:57;6.97;;;3.07;;
19735;SDS011;32064;49.310;8.646;2022-10-31T07:00:25;7.73;;;3.20;;
19735;SDS011;32064;49.310;8.646;2022-10-31T07:05:19;7.43;;;3.17;;
19735;SDS011;32064;49.310;8.646;2022-10-31T07:07:44;9.90;;;3.27;;
19735;SDS011;32064;49.310;8.646;2022-10-31T07:10:10;11.70;;;3.30;;
19735;SDS011;32064;49.310;8.646;2022-10-31T07:12:35;6.47;;;3.00;;
19735;SDS011;32064;49.310;8.646;2022-10-31T07:15:01;8.23;;;4.40;;
19735;SDS011;32064;49.310;8.646;2022-10-31T07:17:26;7.33;;;3.27;;
19735;SDS011;32064;49.310;8.646;2022-10-31T07:19:51;6.23;;;3.23;;
19735;SDS011;32064;49.310;8.646;2022-10-31T07:22:17;5.10;;;3.00;;
19735;SDS011;32064;49.310;8.646;2022-10-31T07:24:42;8.50;;;3.87;;
19735;SDS011;32064;49.310;8.646;2022-10-31T07:27:08;5.40;;;2.77;;
19735;SDS011;32064;49.310;8.646;2022-10-31T07:29:33;8.30;;;3.10;;
19735;SDS011;32064;49.310;8.646;2022-10-31T07:31:58;4.37;;;2.90;;
19735;SDS011;32064;49.310;8.646;2022-10-31T07:34:24;4.83;;;2.53;;
19735;SDS011;32064;49.310;8.646;2022-10-31T07:36:50;7.17;;;2.97;;
19735;SDS011;32064;49.310;8.646;2022-10-31T07:39:16;5.77;;;3.60;;
19735;SDS011;32064;49.310;8.646;2022-10-31T07:41:41;8.93;;;2.90;;
19735;SDS011;32064;49.310;8.646;2022-10-31T07:44:06;5.60;;;3.20;;
19735;SDS011;32064;49.310;8.646;2022-10-31T07:46:32;8.03;;;3.23;;
19735;SDS011;32064;49.310;8.646;2022-10-31T07:48:58;6.90;;;3.07;;
19735;SDS011;32064;49.310;8.646;2022-10-31T07:51:23;8.00;;;3.20;;
19735;SDS011;32064;49.310;8.646;2022-10-31T07:53:49;6.60;;;2.90;;
19735;SDS011;32064;49.310;8.646;2022-10-31T07:56:14;8.57;;;3.33;;
19735;SDS011;32064;49.310;8.646;2022-10-31T07:58:40;7.47;;;3.23;;
19735;SDS011;32064;49.310;8.646;2022-10-31T08:01:05;6.38;;;2.92;;
19735;SDS011;32064;49.310;8.646;2022-10-31T08:03:31;9.30;;;3.35;;
19735;SDS011;32064;49.310;8.646;2022-10-31T08:05:56;6.87;;;2.83;;
19735;SDS011;32064;49.310;8.646;2022-10-31T08:08:22;6.28;;;3.40;;
19735;SDS011;32064;49.310;8.646;2022-10-31T08:10:49;5.75;;;3.85;;
19735;SDS011;32064;49.310;8.646;2022-10-31T08:13:14;5.93;;;2.90;;
19735;SDS011;32064;49.310;8.646;2022-10-31T08:15:40;5.45;;;3.10;;
19735;SDS011;32064;49.310;8.646;2022-10-31T08:18:10;7.80;;;3.22;;
19735;SDS011;32064;49.310;8.646;2022-10-31T08:20:39;8.05;;;2.97;;
19735;SDS011;32064;49.310;8.646;2022-10-31T08:23:05;6.93;;;3.47;;
19735;SDS011;32064;49.310;8.646;2022-10-31T08:25:32;7.85;;;3.53;;
19735;SDS011;32064;49.310;8.646;2022-10-31T08:27:58;9.10;;;3.38;;
19735;SDS011;32064;49.310;8.646;2022-10-31T08:30:25;5.53;;;3.03;;
19735;SDS011;32064;49.310;8.646;2022-10-31T08:33:02;7.07;;;2.92;;
19735;SDS011;32064;49.310;8.646;2022-10-31T08:35:30;6.78;;;3.22;;
19735;SDS011;32064;49.310;8.646;2022-10-31T08:37:57;6.30;;;2.83;;
19735;SDS011;32064;49.310;8.646;2022-10-31T08:40:23;8.68;;;3.35;;
19735;SDS011;32064;49.310;8.646;2022-10-31T08:42:56;6.97;;;2.72;;
19735;SDS011;32064;49.310;8.646;2022-10-31T08:45:22;6.95;;;2.83;;
19735;SDS011;32064;49.310;8.646;2022-10-31T08:47:47;8.82;;;3.65;;
19735;SDS011;32064;49.310;8.646;2022-10-31T08:50:13;8.85;;;3.10;;
19735;SDS011;32064;49.310;8.646;2022-10-31T08:52:38;7.00;;;3.63;;
19735;SDS011;32064;49.310;8.646;2022-10-31T08:55:04;13.93;;;3.33;;
19735;SDS011;32064;49.310;8.646;2022-10-31T08:57:30;7.65;;;3.50;;
19735;SDS011;32064;49.310;8.646;2022-10-31T08:59:55;15.15;;;3.53;;
19735;SDS011;32064;49.310;8.646;2022-10-31T09:02:20;12.88;;;5.43;;
19735;SDS011;32064;49.310;8.646;2022-10-31T09:04:46;10.18;;;4.55;;
19735;SDS011;32064;49.310;8.646;2022-10-31T09:07:11;13.02;;;4.10;;
19735;SDS011;32064;49.310;8.646;2022-10-31T09:09:37;7.30;;;3.63;;
19735;SDS011;32064;49.310;8.646;2022-10-31T09:12:02;8.43;;;3.70;;
19735;SDS011;32064;49.310;8.646;2022-10-31T09:14:28;10.00;;;3.70;;
19735;SDS011;32064;49.310;8.646;2022-10-31T09:16:53;6.90;;;3.67;;
19735;SDS011;32064;49.310;8.646;2022-10-31T09:19:18;5.07;;;3.58;;
19735;SDS011;32064;49.310;8.646;2022-10-31T09:21:44;6.50;;;3.75;;
19735;SDS011;32064;49.310;8.646;2022-10-31T09:24:12;7.40;;;3.67;;
19735;SDS011;32064;49.310;8.646;2022-10-31T09:26:38;6.88;;;3.88;;
19735;SDS011;32064;49.310;8.646;2022-10-31T09:29:03;7.47;;;3.95;;
19735;SDS011;32064;49.310;8.646;2022-10-31T09:31:29;12.30;;;4.45;;
19735;SDS011;32064;49.310;8.646;2022-10-31T09:33:55;8.93;;;4.03;;
19735;SDS011;32064;49.310;8.646;2022-10-31T09:36:20;11.65;;;3.63;;
19735;SDS011;32064;49.310;8.646;2022-10-31T09:38:45;14.95;;;4.22;;
19735;SDS011;32064;49.310;8.646;2022-10-31T09:44:02;8.60;;;3.92;;
19735;SDS011;32064;49.310;8.646;2022-10-31T09:54:51;9.60;;;4.55;;
19735;SDS011;32064;49.310;8.646;2022-10-31T09:57:22;8.80;;;3.88;;
19735;SDS011;32064;49.310;8.646;2022-10-31T09:59:52;6.65;;;3.70;;
19735;SDS011;32064;49.310;8.646;2022-10-31T10:05:00;7.47;;;4.15;;
19735;SDS011;32064;49.310;8.646;2022-10-31T10:10:01;8.60;;;4.85;;
19735;SDS011;32064;49.310;8.646;2022-10-31T10:12:49;7.85;;;4.57;;
19735;SDS011;32064;49.310;8.646;2022-10-31T10:15:48;4.65;;;3.58;;
19735;SDS011;32064;49.310;8.646;2022-10-31T10:21:36;7.18;;;3.78;;
19735;SDS011;32064;49.310;8.646;2022-10-31T10:27:21;8.05;;;4.00;;
19735;SDS011;32064;49.310;8.646;2022-10-31T10:30:04;8.15;;;3.53;;
19735;SDS011;32064;49.310;8.646;2022-10-31T10:32:41;8.88;;;4.22;;
19735;SDS011;32064;49.310;8.646;2022-10-31T10:37:52;9.93;;;4.43;;
19735;SDS011;32064;49.310;8.646;2022-10-31T10:40:25;13.15;;;5.00;;
19735;SDS011;32064;49.310;8.646;2022-10-31T10:42:58;9.82;;;4.75;;
19735;SDS011;32064;49.310;8.646;2022-10-31T10:45:49;9.27;;;4.88;;
19735;SDS011;32064;49.310;8.646;2022-10-31T10:48:55;10.00;;;4.30;;
19735;SDS011;32064;49.310;8.646;2022-10-31T10:51:38;8.48;;;4.55;;
19735;SDS011;32064;49.310;8.646;2022-10-31T10:56:56;10.68;;;6.00;;
19735;SDS011;32064;49.310;8.646;2022-10-31T10:59:33;9.32;;;5.28;;
19735;SDS011;32064;49.310;8.646;2022-10-31T11:02:00;7.90;;;4.70;;
19735;SDS011;32064;49.310;8.646;2022-10-31T11:04:30;8.82;;;5.18;;
19735;SDS011;32064;49.310;8.646;2022-10-31T11:06:58;12.00;;;5.22;;
19735;SDS011;32064;49.310;8.646;2022-10-31T11:09:32;10.82;;;5.20;;
19735;SDS011;32064;49.310;8.646;2022-10-31T11:11:59;11.48;;;5.25;;
19735;SDS011;32064;49.310;8.646;2022-10-31T11:14:30;9.55;;;4.72;;
19735;SDS011;32064;49.310;8.646;2022-10-31T11:17:10;11.10;;;4.40;;
19735;SDS011;32064;49.310;8.646;2022-10-31T11:19:42;8.98;;;4.50;;
19735;SDS011;32064;49.310;8.646;2022-10-31T11:22:08;9.07;;;4.97;;
19735;SDS011;32064;49.310;8.646;2022-10-31T11:24:41;8.98;;;5.07;;
19735;SDS011;32064;49.310;8.646;2022-10-31T11:27:14;9.00;;;5.03;;
19735;SDS011;32064;49.310;8.646;2022-10-31T11:29:42;12.85;;;5.00;;
19735;SDS011;32064;49.310;8.646;2022-10-31T11:32:13;9.25;;;5.10;;
19735;SDS011;32064;49.310;8.646;2022-10-31T11:34:47;11.25;;;5.15;;
19735;SDS011;32064;49.310;8.646;2022-10-31T11:37:27;9.90;;;5.22;;
19735;SDS011;32064;49.310;8.646;2022-10-31T11:39:56;12.43;;;5.22;;
19735;SDS011;32064;49.310;8.646;2022-10-31T11:42:27;9.07;;;5.72;;
19735;SDS011;32064;49.310;8.646;2022-10-31T11:45:00;12.50;;;4.68;;
19735;SDS011;32064;49.310;8.646;2022-10-31T11:47:31;10.93;;;5.30;;
19735;SDS011;32064;49.310;8.646;2022-10-31T11:49:57;6.93;;;4.70;;
19735;SDS011;32064;49.310;8.646;2022-10-31T11:52:28;10.48;;;5.25;;
19735;SDS011;32064;49.310;8.646;2022-10-31T11:55:01;12.15;;;4.78;;
19735;SDS011;32064;49.310;8.646;2022-10-31T11:57:42;11.57;;;5.47;;
19735;SDS011;32064;49.310;8.646;2022-10-31T12:00:31;9.30;;;5.32;;
19735;SDS011;32064;49.310;8.646;2022-10-31T12:08:38;12.45;;;6.72;;
19735;SDS011;32064;49.310;8.646;2022-10-31T12:22:07;10.20;;;7.10;;
19735;SDS011;32064;49.310;8.646;2022-10-31T12:24:47;13.88;;;7.47;;
19735;SDS011;32064;49.310;8.646;2022-10-31T12:36:33;12.85;;;6.60;;
19735;SDS011;32064;49.310;8.646;2022-10-31T12:47:59;13.38;;;6.90;;
19735;SDS011;32064;49.310;8.646;2022-10-31T12:58:55;11.80;;;7.20;;
19735;SDS011;32064;49.310;8.646;2022-10-31T13:01:29;15.05;;;7.43;;
19735;SDS011;32064;49.310;8.646;2022-10-31T13:03:59;10.88;;;6.72;;
19735;SDS011;32064;49.310;8.646;2022-10-31T13:06:40;10.57;;;6.93;;
19735;SDS011;32064;49.310;8.646;2022-10-31T13:09:10;15.02;;;7.68;;
19735;SDS011;32064;49.310;8.646;2022-10-31T13:11:44;14.70;;;7.18;;
19735;SDS011;32064;49.310;8.646;2022-10-31T13:14:17;12.07;;;6.93;;
19735;SDS011;32064;49.310;8.646;2022-10-31T13:16:55;11.45;;;7.50;;
19735;SDS011;32064;49.310;8.646;2022-10-31T13:19:28;11.38;;;6.22;;
19735;SDS011;32064;49.310;8.646;2022-10-31T13:24:41;10.35;;;7.43;;
19735;SDS011;32064;49.310;8.646;2022-10-31T13:27:36;11.63;;;7.22;;
19735;SDS011;32064;49.310;8.646;2022-10-31T13:32:39;10.80;;;6.85;;
19735;SDS011;32064;49.310;8.646;2022-10-31T13:35:24;10.02;;;7.30;;
19735;SDS011;32064;49.310;8.646;2022-10-31T13:41:00;15.20;;;7.82;;
19735;SDS011;32064;49.310;8.646;2022-10-31T13:43:30;11.75;;;7.35;;
19735;SDS011;32064;49.310;8.646;2022-10-31T13:46:26;14.23;;;7.63;;
19735;SDS011;32064;49.310;8.646;2022-10-31T13:49:00;14.05;;;7.43;;
19735;SDS011;32064;49.310;8.646;2022-10-31T13:51:29;30.40;;;8.48;;
19735;SDS011;32064;49.310;8.646;2022-10-31T13:54:40;29.85;;;7.82;;
19735;SDS011;32064;49.310;8.646;2022-10-31T13:56:56;18.50;;;6.68;;
19735;SDS011;32064;49.310;8.646;2022-10-31T13:59:22;15.85;;;5.30;;
19735;SDS011;32064;49.310;8.646;2022-10-31T14:01:51;9.43;;;4.93;;
19735;SDS011;32064;49.310;8.646;2022-10-31T14:04:32;13.05;;;5.53;;
19735;SDS011;32064;49.310;8.646;2022-10-31T14:07:10;8.25;;;5.50;;
19735;SDS011;32064;49.310;8.646;2022-10-31T14:09:39;9.80;;;5.25;;
19735;SDS011;32064;49.310;8.646;2022-10-31T14:12:29;8.35;;;5.13;;
19735;SDS011;32064;49.310;8.646;2022-10-31T14:15:03;9.57;;;5.18;;
19735;SDS011;32064;49.310;8.646;2022-10-31T14:17:44;12.80;;;5.68;;
19735;SDS011;32064;49.310;8.646;2022-10-31T14:22:39;9.65;;;5.53;;
19735;SDS011;32064;49.310;8.646;2022-10-31T14:27:54;10.05;;;6.30;;
19735;SDS011;32064;49.310;8.646;2022-10-31T14:30:22;9.05;;;5.57;;
19735;SDS011;32064;49.310;8.646;2022-10-31T14:32:50;10.45;;;5.35;;
19735;SDS011;32064;49.310;8.646;2022-10-31T14:35:23;9.52;;;5.18;;
19735;SDS011;32064;49.310;8.646;2022-10-31T14:38:06;13.30;;;5.47;;
19735;SDS011;32064;49.310;8.646;2022-10-31T14:43:36;9.25;;;5.45;;
19735;SDS011;32064;49.310;8.646;2022-10-31T14:51:54;16.40;;;12.75;;
19735;SDS011;32064;49.310;8.646;2022-10-31T14:54:30;14.23;;;9.43;;
19735;SDS011;32064;49.310;8.646;2022-10-31T14:57:01;13.32;;;6.95;;
19735;SDS011;32064;49.310;8.646;2022-10-31T14:59:30;7.10;;;5.32;;
19735;SDS011;32064;49.310;8.646;2022-10-31T15:01:59;5.88;;;4.40;;
19735;SDS011;32064;49.310;8.646;2022-10-31T15:04:34;11.55;;;4.55;;
19735;SDS011;32064;49.310;8.646;2022-10-31T15:07:09;12.65;;;4.40;;
19735;SDS011;32064;49.310;8.646;2022-10-31T15:09:40;9.63;;;4.90;;
19735;SDS011;32064;49.310;8.646;2022-10-31T15:12:27;9.80;;;4.75;;
19735;SDS011;32064;49.310;8.646;2022-10-31T15:14:54;6.30;;;4.35;;
19735;SDS011;32064;49.310;8.646;2022-10-31T15:17:21;8.10;;;4.60;;
19735;SDS011;32064;49.310;8.646;2022-10-31T15:19:48;10.98;;;5.45;;
19735;SDS011;32064;49.310;8.646;2022-10-31T15:22:15;10.15;;;5.32;;
19735;SDS011;32064;49.310;8.646;2022-10-31T15:24:42;13.20;;;5.10;;
19735;SDS011;32064;49.310;8.646;2022-10-31T15:27:10;9.70;;;5.22;;
19735;SDS011;32064;49.310;8.646;2022-10-31T15:29:46;9.55;;;4.88;;
19735;SDS011;32064;49.310;8.646;2022-10-31T15:32:20;8.30;;;5.03;;
19735;SDS011;32064;49.310;8.646;2022-10-31T15:34:48;16.65;;;5.20;;
19735;SDS011;32064;49.310;8.646;2022-10-31T15:37:16;10.20;;;5.10;;
19735;SDS011;32064;49.310;8.646;2022-10-31T15:39:44;6.82;;;4.10;;
19735;SDS011;32064;49.310;8.646;2022-10-31T15:42:30;8.27;;;4.63;;
19735;SDS011;32064;49.310;8.646;2022-10-31T15:45:01;13.80;;;5.25;;
19735;SDS011;32064;49.310;8.646;2022-10-31T15:47:28;7.00;;;4.82;;
19735;SDS011;32064;49.310;8.646;2022-10-31T15:49:56;10.05;;;5.20;;
19735;SDS011;32064;49.310;8.646;2022-10-31T15:54:55;11.95;;;6.32;;
19735;SDS011;32064;49.310;8.646;2022-10-31T15:57:24;9.55;;;5.55;;
19735;SDS011;32064;49.310;8.646;2022-10-31T15:59:51;9.48;;;6.00;;
19735;SDS011;32064;49.310;8.646;2022-10-31T16:02:18;11.45;;;7.07;;
19735;SDS011;32064;49.310;8.646;2022-10-31T16:04:50;15.90;;;6.97;;
19735;SDS011;32064;49.310;8.646;2022-10-31T16:07:16;12.18;;;6.53;;
19735;SDS011;32064;49.310;8.646;2022-10-31T16:09:50;14.10;;;7.68;;
19735;SDS011;32064;49.310;8.646;2022-10-31T16:12:17;12.48;;;7.80;;
19735;SDS011;32064;49.310;8.646;2022-10-31T16:14:42;15.52;;;6.88;;
19735;SDS011;32064;49.310;8.646;2022-10-31T16:17:11;13.73;;;8.27;;
19735;SDS011;32064;49.310;8.646;2022-10-31T16:19:45;13.38;;;6.80;;
19735;SDS011;32064;49.310;8.646;2022-10-31T16:22:18;9.18;;;6.95;;
19735;SDS011;32064;49.310;8.646;2022-10-31T16:24:54;10.20;;;6.75;;
19735;SDS011;32064;49.310;8.646;2022-10-31T16:27:21;16.00;;;6.30;;
19735;SDS011;32064;49.310;8.646;2022-10-31T16:29:50;11.25;;;5.85;;
19735;SDS011;32064;49.310;8.646;2022-10-31T16:35:01;10.52;;;5.28;;
19735;SDS011;32064;49.310;8.646;2022-10-31T16:37:32;11.80;;;5.65;;
19735;SDS011;32064;49.310;8.646;2022-10-31T16:39:58;12.00;;;7.25;;
19735;SDS011;32064;49.310;8.646;2022-10-31T16:42:23;12.63;;;6.22;;
19735;SDS011;32064;49.310;8.646;2022-10-31T16:44:49;10.85;;;6.20;;
19735;SDS011;32064;49.310;8.646;2022-10-31T16:47:16;9.77;;;6.43;;
19735;SDS011;32064;49.310;8.646;2022-10-31T16:49:42;10.27;;;6.00;;
19735;SDS011;32064;49.310;8.646;2022-10-31T16:52:09;11.63;;;6.35;;
19735;SDS011;32064;49.310;8.646;2022-10-31T16:54:34;8.52;;;6.50;;
19735;SDS011;32064;49.310;8.646;2022-10-31T16:56:59;11.55;;;6.90;;
19735;SDS011;32064;49.310;8.646;2022-10-31T16:59:27;14.50;;;6.68;;
19735;SDS011;32064;49.310;8.646;2022-10-31T17:01:54;21.42;;;7.13;;
19735;SDS011;32064;49.310;8.646;2022-10-31T17:04:20;10.63;;;6.55;;
19735;SDS011;32064;49.310;8.646;2022-10-31T17:06:46;16.25;;;6.40;;
19735;SDS011;32064;49.310;8.646;2022-10-31T17:09:11;10.77;;;6.55;;
19735;SDS011;32064;49.310;8.646;2022-10-31T17:11:37;10.73;;;6.40;;
19735;SDS011;32064;49.310;8.646;2022-10-31T17:14:08;9.90;;;4.95;;